createdAt,value
2019-03-18T00:07:51.089Z,93331.12
2019-03-18T00:22:56.802Z,93331.88
2019-03-18T00:37:59.359Z,93337.63
2019-03-18T00:53:01.924Z,93336.28
2019-03-18T01:08:04.488Z,93328.02
2019-03-18T01:23:07.457Z,93307.13
2019-03-18T01:38:12.020Z,93303.99
2019-03-18T01:53:55.255Z,93296.74
2019-03-18T02:08:59.041Z,93299.16
2019-03-18T02:24:01.588Z,93316.78
2019-03-18T02:39:07.431Z,93325.58
2019-03-18T02:54:10.041Z,93326.71
2019-03-18T03:09:13.685Z,93320.83
2019-03-18T03:24:16.234Z,93317.22
2019-03-18T03:39:19.365Z,93336.95
2019-03-18T03:54:22.694Z,93345.63
2019-03-18T04:09:25.507Z,93346.53
2019-03-18T04:24:30.064Z,93355.04
2019-03-18T04:39:32.634Z,93361.92
2019-03-18T04:54:36.302Z,93354.95
2019-03-18T05:09:42.092Z,93379.63
2019-03-18T05:24:44.660Z,93373.22
2019-03-18T05:39:47.216Z,93391.64
2019-03-18T05:54:52.589Z,93385.13
2019-03-18T06:09:55.156Z,93383.02
2019-03-18T06:24:58.944Z,93376.02
2019-03-18T06:40:02.631Z,93379.95
2019-03-18T06:55:06.017Z,93392.41
2019-03-18T07:10:14.325Z,93385.50
2019-03-18T07:25:16.904Z,93388.89
2019-03-18T07:40:19.459Z,93387.61
2019-03-18T07:55:22.122Z,93362.30
2019-03-18T08:10:24.708Z,93347.61
2019-03-18T08:25:28.864Z,93342.55
2019-03-18T08:40:31.463Z,93342.86
2019-03-18T08:55:34.894Z,93326.78
2019-03-18T09:10:37.461Z,93315.94
2019-03-18T09:25:40.039Z,93308.65
2019-03-18T09:40:43.694Z,93300.00
2019-03-18T09:55:46.760Z,93289.30
2019-03-18T10:10:49.996Z,93276.84
2019-03-18T10:25:52.567Z,93248.48
2019-03-18T10:40:55.990Z,93248.63
2019-03-18T10:56:07.288Z,93235.25
2019-03-18T11:11:03.176Z,93224.74
2019-03-18T11:26:05.736Z,93194.72
2019-03-18T11:41:09.081Z,93173.98
2019-03-18T11:56:12.321Z,93152.53
2019-03-18T12:11:16.392Z,93132.43
2019-03-18T12:26:20.449Z,93113.38
2019-03-18T12:41:23.000Z,93095.10
2019-03-18T12:56:28.445Z,93073.81
2019-03-18T13:11:31.392Z,93065.05
2019-03-18T13:26:34.858Z,93054.57
2019-03-18T13:41:37.718Z,93057.34
2019-03-18T13:56:40.370Z,93040.49
2019-03-18T14:11:42.943Z,93024.91
2019-03-18T14:26:48.107Z,93015.81
2019-03-18T14:41:50.946Z,93004.85
2019-03-18T14:56:53.510Z,93008.74
2019-03-18T15:11:57.448Z,93012.00
2019-03-18T15:27:01.332Z,93023.90
2019-03-18T15:42:04.391Z,93016.26
2019-03-18T15:57:07.105Z,93035.73
2019-03-18T16:12:12.375Z,93036.01
2019-03-18T16:27:15.034Z,93050.30
2019-03-18T16:42:21.573Z,93068.51
2019-03-18T16:57:25.138Z,93069.78
2019-03-18T17:12:27.785Z,93074.77
2019-03-18T17:27:31.914Z,93078.55
2019-03-18T17:42:35.214Z,93089.98
2019-03-18T17:57:38.482Z,93085.25
2019-03-18T18:12:41.112Z,93139.79
2019-03-18T18:27:44.118Z,93154.71
2019-03-18T18:42:50.113Z,93169.20
2019-03-18T18:57:54.118Z,93179.72
2019-03-18T19:12:58.525Z,93185.14
2019-03-18T19:28:01.730Z,93208.09
2019-03-18T19:43:05.208Z,93223.36
2019-03-18T19:58:09.947Z,93232.89
2019-03-18T20:13:13.558Z,93257.20
2019-03-18T20:28:16.161Z,93250.95
2019-03-18T20:43:20.593Z,93258.06
2019-03-18T20:58:24.357Z,93297.50
2019-03-18T21:13:27.935Z,93296.62
2019-03-18T21:28:40.693Z,93288.22
2019-03-18T21:43:36.874Z,93291.08
2019-03-18T21:58:41.191Z,93283.12
2019-03-18T22:13:46.481Z,93299.27
2019-03-18T22:28:49.242Z,93301.25
2019-03-18T22:43:52.645Z,93293.20
2019-03-18T22:58:55.618Z,93326.44
2019-03-18T23:13:58.254Z,93344.22
2019-03-18T23:29:01.841Z,93347.18
2019-03-18T23:44:05.424Z,93364.83
2019-03-18T23:59:11.392Z,93368.86
